createdAt,value
2023-02-19T00:01:31.254Z,97926.06
2023-02-19T00:04:00.843Z,97921.50
2023-02-19T00:06:29.313Z,97924.03
2023-02-19T00:08:56.617Z,97920.59
2023-02-19T00:11:26.440Z,97922.19
2023-02-19T00:13:55.538Z,97914.38
2023-02-19T00:16:26.694Z,97925.50
2023-02-19T00:18:54.581Z,97919.13
2023-02-19T00:21:21.801Z,97926.59
2023-02-19T00:23:53.091Z,97922.94
2023-02-19T00:26:19.915Z,97922.56
2023-02-19T00:28:48.789Z,97909.66
2023-02-19T00:31:33.009Z,97926.94
2023-02-19T00:34:02.382Z,97917.47
2023-02-19T00:36:30.395Z,97915.28
2023-02-19T00:38:57.235Z,97916.38
2023-02-19T00:41:25.133Z,97910.75
2023-02-19T00:44:12.582Z,97910.41
2023-02-19T00:46:45.077Z,97914.22
2023-02-19T00:49:16.911Z,97909.66
2023-02-19T00:51:43.606Z,97906.03
2023-02-19T00:54:10.675Z,97900.22
2023-02-19T00:56:37.314Z,97905.31
2023-02-19T00:59:04.497Z,97899.66
2023-02-19T01:01:31.658Z,97901.50
2023-02-19T01:03:58.335Z,97900.75
2023-02-19T01:06:25.138Z,97892.22
2023-02-19T01:08:51.933Z,97894.59
2023-02-19T01:11:20.451Z,97884.41
2023-02-19T01:13:47.695Z,97880.38
2023-02-19T01:16:21.051Z,97884.22
2023-02-19T01:18:48.144Z,97888.59
2023-02-19T01:21:23.889Z,97878.59
2023-02-19T01:23:51.897Z,97893.31
2023-02-19T01:26:21.611Z,97869.84
2023-02-19T01:28:48.624Z,97877.13
2023-02-19T01:31:18.613Z,97872.03
2023-02-19T01:33:49.930Z,97872.03
2023-02-19T01:36:16.791Z,97870.22
2023-02-19T01:38:44.232Z,97869.31
2023-02-19T01:41:14.147Z,97860.59
2023-02-19T01:44:36.452Z,97865.69
2023-02-19T01:47:03.113Z,97860.38
2023-02-19T01:49:33.849Z,97855.13
2023-02-19T01:52:05.977Z,97850.56
2023-02-19T01:54:36.523Z,97849.28
2023-02-19T01:57:06.894Z,97839.09
2023-02-19T01:59:34.206Z,97836.38
2023-02-19T02:02:01.471Z,97827.66
2023-02-19T02:04:31.024Z,97841.28
2023-02-19T02:06:59.811Z,97828.72
2023-02-19T02:09:49.689Z,97831.31
2023-02-19T02:12:16.402Z,97832.19
2023-02-19T02:14:48.210Z,97822.19
2023-02-19T02:17:40.674Z,97823.84
2023-02-19T02:20:52.016Z,97824.56
2023-02-19T02:24:03.021Z,97814.16
2023-02-19T02:27:04.726Z,97811.28
2023-02-19T02:29:50.570Z,97811.28
2023-02-19T02:32:43.254Z,97811.09
2023-02-19T02:35:13.589Z,97802.19
2023-02-19T02:37:43.673Z,97799.81
2023-02-19T02:40:12.100Z,97799.81
2023-02-19T02:42:40.243Z,97806.72
2023-02-19T02:45:37.343Z,97804.91
2023-02-19T02:48:25.911Z,97803.06
2023-02-19T02:50:58.440Z,97801.06
2023-02-19T02:53:47.569Z,97794.53
2023-02-19T02:56:16.717Z,97804.16
2023-02-19T02:58:44.735Z,97802.53
2023-02-19T03:01:37.096Z,97792.50
2023-02-19T03:04:09.824Z,97787.25
2023-02-19T03:06:38.056Z,97788.91
2023-02-19T03:09:15.226Z,97797.03
2023-02-19T03:12:05.188Z,97785.63
2023-02-19T03:15:05.167Z,97786.72
2023-02-19T03:17:59.245Z,97776.53
2023-02-19T03:20:27.479Z,97781.25
2023-02-19T03:22:56.798Z,97768.00
2023-02-19T03:25:53.751Z,97764.53
2023-02-19T03:28:43.906Z,97770.72
2023-02-19T03:31:14.002Z,97768.75
2023-02-19T03:33:42.907Z,97759.81
2023-02-19T03:36:15.324Z,97769.28
2023-02-19T03:38:53.101Z,97766.38
2023-02-19T03:41:33.561Z,97766.72
2023-02-19T03:44:38.849Z,97765.97
2023-02-19T03:47:37.885Z,97772.00
2023-02-19T03:50:36.874Z,97765.97
2023-02-19T03:53:32.975Z,97755.44
2023-02-19T03:56:32.091Z,97757.44
2023-02-19T03:59:13.393Z,97747.25
2023-02-19T04:02:09.433Z,97748.19
2023-02-19T04:04:52.054Z,97758.88
2023-02-19T04:07:18.770Z,97750.53
2023-02-19T04:09:48.877Z,97765.81
2023-02-19T04:12:19.184Z,97758.72
2023-02-19T04:15:14.378Z,97758.16
2023-02-19T04:18:05.441Z,97756.72
2023-02-19T04:20:38.287Z,97746.00
2023-02-19T04:23:05.319Z,97745.97
2023-02-19T04:25:33.493Z,97742.88
2023-02-19T04:28:00.207Z,97738.00
2023-02-19T04:30:27.071Z,97736.91
2023-02-19T04:32:53.774Z,97746.53
2023-02-19T04:35:20.398Z,97746.53
2023-02-19T04:37:46.978Z,97738.56
2023-02-19T04:40:13.601Z,97732.53
2023-02-19T04:42:40.192Z,97732.19
2023-02-19T04:45:07.454Z,97732.19
2023-02-19T04:47:34.074Z,97735.28
2023-02-19T04:50:00.630Z,97731.28
2023-02-19T04:52:27.255Z,97727.09
2023-02-19T04:54:53.861Z,97726.72
2023-02-19T04:57:20.468Z,97719.09
2023-02-19T04:59:47.273Z,97706.38
2023-02-19T05:02:13.888Z,97718.19
2023-02-19T05:04:41.241Z,97726.94
2023-02-19T05:07:08.053Z,97724.72
2023-02-19T05:09:34.669Z,97724.91
2023-02-19T05:12:01.398Z,97714.75
2023-02-19T05:14:28.011Z,97702.75
2023-02-19T05:16:54.596Z,97693.28
2023-02-19T05:19:21.262Z,97693.09
2023-02-19T05:21:47.866Z,97697.31
2023-02-19T05:24:14.506Z,97698.91
2023-02-19T05:26:41.109Z,97696.19
2023-02-19T05:29:07.713Z,97698.03
2023-02-19T05:31:34.376Z,97686.56
2023-02-19T05:34:01.242Z,97692.00
2023-02-19T05:36:27.920Z,97700.19
2023-02-19T05:38:55.790Z,97683.13
2023-02-19T05:41:25.298Z,97676.94
2023-02-19T05:43:52.299Z,97687.28
2023-02-19T05:46:21.304Z,97696.75
2023-02-19T05:48:49.266Z,97686.19
2023-02-19T05:51:18.692Z,97690.22
2023-02-19T05:53:45.587Z,97689.28
2023-02-19T05:56:30.502Z,97699.09
2023-02-19T05:58:57.798Z,97687.13
2023-02-19T06:01:26.947Z,97698.75
2023-02-19T06:03:57.093Z,97722.91
2023-02-19T06:06:25.577Z,97721.28
2023-02-19T06:08:52.163Z,97729.66
2023-02-19T06:11:19.051Z,97732.19
2023-02-19T06:13:46.102Z,97738.19
2023-02-19T06:16:12.996Z,97747.44
2023-02-19T06:18:42.454Z,97750.16
2023-02-19T06:21:10.904Z,97753.97
2023-02-19T06:23:38.235Z,97751.00
2023-02-19T06:26:13.989Z,97747.22
2023-02-19T06:28:41.867Z,97757.75
2023-02-19T06:31:09.972Z,97753.53
2023-02-19T06:33:40.620Z,97767.69
2023-02-19T06:36:11.403Z,97772.78
2023-02-19T06:38:37.998Z,97773.69
2023-02-19T06:41:07.001Z,97766.41
2023-02-19T06:43:34.317Z,97764.47
2023-02-19T06:46:02.292Z,97777.16
2023-02-19T06:48:29.879Z,97782.41
2023-02-19T06:50:56.947Z,97758.22
2023-02-19T06:53:24.157Z,97772.19
2023-02-19T06:56:27.606Z,97779.97
2023-02-19T06:58:56.760Z,97782.50
2023-02-19T07:01:24.273Z,97793.19
2023-02-19T07:03:52.605Z,97796.81
2023-02-19T07:06:20.222Z,97796.28
2023-02-19T07:08:46.999Z,97792.66
2023-02-19T07:11:13.626Z,97799.03
2023-02-19T07:13:40.487Z,97801.97
2023-02-19T07:16:09.363Z,97794.00
2023-02-19T07:18:36.049Z,97792.19
2023-02-19T07:21:13.845Z,97794.38
2023-02-19T07:23:41.981Z,97800.41
2023-02-19T07:26:10.381Z,97793.31
2023-02-19T07:28:36.987Z,97795.50
2023-02-19T07:31:05.051Z,97801.34
2023-02-19T07:33:31.719Z,97806.22
2023-02-19T07:35:58.370Z,97800.75
2023-02-19T07:38:26.010Z,97795.88
2023-02-19T07:41:00.434Z,97798.47
2023-02-19T07:43:30.067Z,97801.75
2023-02-19T07:45:57.013Z,97801.41
2023-02-19T07:48:23.724Z,97805.59
2023-02-19T07:50:59.502Z,97783.41
2023-02-19T07:53:27.993Z,97802.34
2023-02-19T07:55:59.196Z,97797.25
2023-02-19T07:58:25.846Z,97794.72
2023-02-19T08:00:52.534Z,97808.16
2023-02-19T08:03:19.182Z,97811.09
2023-02-19T08:05:46.069Z,97808.72
2023-02-19T08:08:14.655Z,97803.84
2023-02-19T08:11:00.226Z,97807.81
2023-02-19T08:13:30.086Z,97809.28
2023-02-19T08:16:18.289Z,97814.91
2023-02-19T08:18:48.708Z,97825.28
2023-02-19T08:21:18.106Z,97830.56
2023-02-19T08:23:46.257Z,97822.38
2023-02-19T08:26:13.436Z,97821.63
2023-02-19T08:28:40.246Z,97825.09
2023-02-19T08:31:08.934Z,97825.66
2023-02-19T08:33:37.844Z,97840.94
2023-02-19T08:36:06.843Z,97828.56
2023-02-19T08:38:35.949Z,97833.28
2023-02-19T08:41:07.406Z,97839.13
2023-02-19T08:43:34.794Z,97848.03
2023-02-19T08:46:01.644Z,97833.28
2023-02-19T08:48:28.862Z,97836.56
2023-02-19T08:50:56.815Z,97841.28
2023-02-19T08:53:24.793Z,97846.38
2023-02-19T08:55:52.043Z,97847.84
2023-02-19T08:58:18.683Z,97838.00
2023-02-19T09:00:45.352Z,97844.91
2023-02-19T09:03:12.073Z,97827.78
2023-02-19T09:05:39.166Z,97825.25
2023-02-19T09:08:05.883Z,97839.81
2023-02-19T09:10:32.527Z,97839.81
2023-02-19T09:12:59.078Z,97839.63
2023-02-19T09:15:25.798Z,97839.81
2023-02-19T09:17:53.051Z,97849.44
2023-02-19T09:20:19.997Z,97838.91
2023-02-19T09:22:46.705Z,97842.75
2023-02-19T09:25:13.280Z,97866.22
2023-02-19T09:27:39.856Z,97879.66
2023-02-19T09:30:07.338Z,97904.56
2023-02-19T09:32:33.979Z,97886.09
2023-02-19T09:35:00.574Z,97902.19
2023-02-19T09:37:27.920Z,97920.31
2023-02-19T09:39:55.060Z,97917.31
2023-02-19T09:42:29.841Z,97940.78
2023-02-19T09:44:59.889Z,97926.59
2023-02-19T09:47:30.175Z,97924.66
2023-02-19T09:50:01.140Z,97931.38
2023-02-19T09:52:49.788Z,97928.38
2023-02-19T09:55:32.516Z,97933.75
2023-02-19T09:58:00.154Z,97931.84
2023-02-19T10:00:30.588Z,97952.34
2023-02-19T10:03:13.317Z,97943.72
2023-02-19T10:05:40.893Z,97952.03
2023-02-19T10:08:14.831Z,97953.41
2023-02-19T10:10:41.682Z,97954.03
2023-02-19T10:13:23.476Z,97949.44
2023-02-19T10:15:56.316Z,97951.25
2023-02-19T10:18:29.100Z,97936.97
2023-02-19T10:20:57.066Z,97950.78
2023-02-19T10:23:25.801Z,97943.16
2023-02-19T10:25:57.876Z,97945.72
2023-02-19T10:28:34.042Z,97951.66
2023-02-19T10:31:03.977Z,97969.47
2023-02-19T10:33:30.796Z,97957.53
2023-02-19T10:36:07.785Z,97955.06
2023-02-19T10:38:35.979Z,97960.94
2023-02-19T10:41:18.490Z,97959.19
2023-02-19T10:44:09.416Z,97957.94
2023-02-19T10:46:42.251Z,97968.69
2023-02-19T10:49:40.232Z,97957.31
2023-02-19T10:52:24.211Z,97952.22
2023-02-19T10:55:14.788Z,97957.69
2023-02-19T10:57:41.484Z,97963.00
2023-02-19T11:00:27.407Z,97960.84
2023-02-19T11:03:23.875Z,97955.75
2023-02-19T11:06:02.820Z,97953.00
2023-02-19T11:08:32.267Z,97956.47
2023-02-19T11:10:59.146Z,97952.78
2023-02-19T11:13:32.737Z,97952.97
2023-02-19T11:16:00.764Z,97952.78
2023-02-19T11:18:30.672Z,97946.53
2023-02-19T11:21:07.447Z,97943.91
2023-02-19T11:23:44.691Z,97941.53
2023-02-19T11:26:20.872Z,97932.41
2023-02-19T11:28:56.967Z,97930.19
2023-02-19T11:31:29.598Z,97934.19
2023-02-19T11:33:57.981Z,97942.97
2023-02-19T11:36:30.125Z,97939.88
2023-02-19T11:38:57.667Z,97933.94
2023-02-19T11:41:57.981Z,97923.44
2023-02-19T11:45:02.165Z,97925.66
2023-02-19T11:48:06.243Z,97910.31
2023-02-19T11:51:25.428Z,97920.69
2023-02-19T11:54:04.383Z,97922.69
2023-02-19T11:56:37.168Z,97917.63
2023-02-19T11:59:12.191Z,97924.00
2023-02-19T12:01:52.775Z,97925.09
2023-02-19T12:04:56.998Z,97930.75
2023-02-19T12:11:08.091Z,97929.66
2023-02-19T12:13:46.724Z,97917.44
2023-02-19T12:16:50.208Z,97930.19
2023-02-19T12:19:47.791Z,97925.09
2023-02-19T12:22:41.064Z,97912.53
2023-02-19T12:25:44.834Z,97902.41
2023-02-19T12:32:13.330Z,97899.00
2023-02-19T12:41:43.534Z,97943.22
2023-02-19T12:44:21.339Z,97936.72
2023-02-19T12:46:52.222Z,97944.22
2023-02-19T12:49:37.747Z,97960.59
2023-02-19T12:55:24.795Z,97935.13
2023-02-19T12:57:52.886Z,97958.63
2023-02-19T13:00:49.463Z,97957.56
2023-02-19T13:03:28.556Z,97955.56
2023-02-19T13:06:13.662Z,97960.31
2023-02-19T13:09:06.279Z,97961.00
2023-02-19T13:11:49.408Z,97963.69
2023-02-19T13:14:29.948Z,97960.81
2023-02-19T13:17:20.447Z,97956.25
2023-02-19T13:19:50.387Z,97956.59
2023-02-19T13:22:48.200Z,97953.97
2023-02-19T13:25:16.823Z,97953.38
2023-02-19T13:28:09.774Z,97961.28
2023-02-19T13:30:43.327Z,97961.09
2023-02-19T13:33:32.262Z,97964.44
2023-02-19T13:36:37.286Z,97962.56
2023-02-19T13:39:07.245Z,97964.22
2023-02-19T13:41:41.935Z,97961.34
2023-02-19T13:44:19.928Z,97973.03
2023-02-19T13:46:49.104Z,97973.38
2023-02-19T13:49:40.024Z,97969.72
2023-02-19T13:52:43.400Z,97971.91
2023-02-19T13:55:51.392Z,97962.81
2023-02-19T13:58:37.828Z,97971.91
2023-02-19T14:01:09.706Z,97967.16
2023-02-19T14:04:07.842Z,97954.81
2023-02-19T14:07:22.824Z,97963.72
2023-02-19T14:09:49.642Z,97978.34
2023-02-19T14:12:22.383Z,97987.78
2023-02-19T14:14:53.417Z,97978.34
2023-02-19T14:17:39.689Z,97977.75
2023-02-19T14:20:29.236Z,97965.75
2023-02-19T14:23:02.223Z,97980.13
2023-02-19T14:25:39.027Z,97968.28
2023-02-19T14:28:40.656Z,97981.41
2023-02-19T14:31:33.312Z,97980.31
2023-02-19T14:34:19.506Z,97978.84
2023-02-19T14:37:01.304Z,97969.56
2023-02-19T14:39:35.097Z,97972.88
2023-02-19T14:42:12.476Z,97980.50
2023-02-19T14:44:53.016Z,97979.06
2023-02-19T14:47:23.148Z,97981.06
2023-02-19T14:49:58.409Z,97975.22
2023-02-19T14:52:32.029Z,97980.50
2023-02-19T14:55:33.834Z,97981.56
2023-02-19T14:58:06.475Z,97982.88
2023-02-19T15:00:38.988Z,97983.22
2023-02-19T15:03:05.985Z,97987.63
2023-02-19T15:05:37.508Z,97981.97
2023-02-19T15:08:12.025Z,97993.09
2023-02-19T15:10:42.200Z,97995.97
2023-02-19T15:13:12.089Z,97996.91
2023-02-19T15:15:44.981Z,98000.72
2023-02-19T15:18:26.246Z,97997.63
2023-02-19T15:21:01.437Z,98009.47
2023-02-19T15:23:30.784Z,98020.56
2023-02-19T15:25:58.300Z,98006.38
2023-02-19T15:28:34.322Z,98013.47
2023-02-19T15:31:15.051Z,98017.47
2023-02-19T15:33:50.542Z,98025.47
2023-02-19T15:36:24.277Z,98031.28
2023-02-19T15:38:56.905Z,98027.81
2023-02-19T15:41:26.577Z,98024.38
2023-02-19T15:44:10.208Z,98051.09
2023-02-19T15:46:38.203Z,98056.38
2023-02-19T15:49:14.803Z,98053.66
2023-02-19T15:52:05.937Z,98057.09
2023-02-19T15:54:55.619Z,98054.53
2023-02-19T15:57:29.890Z,98057.09
2023-02-19T16:00:45.636Z,98055.44
2023-02-19T16:03:21.061Z,98062.19
2023-02-19T16:06:01.943Z,98066.16
2023-02-19T16:08:38.273Z,98061.78
2023-02-19T16:11:29.952Z,98066.88
2023-02-19T16:14:16.014Z,98069.78
2023-02-19T16:16:43.953Z,98098.88
2023-02-19T16:19:11.094Z,98099.91
2023-02-19T16:21:38.198Z,98089.03
2023-02-19T16:24:22.112Z,98112.06
2023-02-19T16:26:48.780Z,98113.91
2023-02-19T16:29:25.357Z,98123.41
2023-02-19T16:31:55.032Z,98118.81
2023-02-19T16:34:40.935Z,98129.31
2023-02-19T16:37:36.902Z,98132.78
2023-02-19T16:41:05.175Z,98133.91
2023-02-19T16:43:41.034Z,98134.44
2023-02-19T16:46:10.753Z,98129.72
2023-02-19T16:48:38.111Z,98140.69
2023-02-19T16:51:12.139Z,98142.28
2023-02-19T16:53:38.946Z,98150.25
2023-02-19T16:56:06.264Z,98149.41
2023-02-19T16:58:32.923Z,98146.47
2023-02-19T17:00:59.629Z,98161.53
2023-02-19T17:03:26.335Z,98161.88
2023-02-19T17:05:53.292Z,98155.69
2023-02-19T17:08:38.159Z,98165.88
2023-02-19T17:11:10.226Z,98171.72
2023-02-19T17:13:37.137Z,98166.81
2023-02-19T17:16:04.273Z,98168.25
2023-02-19T17:18:30.983Z,98173.09
2023-02-19T17:21:13.869Z,98174.66
2023-02-19T17:23:40.643Z,98181.69
2023-02-19T17:26:07.322Z,98181.03
2023-02-19T17:28:33.916Z,98187.56
2023-02-19T17:31:00.601Z,98192.16
2023-02-19T17:33:27.236Z,98187.72
2023-02-19T17:35:53.924Z,98191.00
2023-02-19T17:38:20.656Z,98193.19
2023-02-19T17:40:47.384Z,98188.06
2023-02-19T17:43:14.663Z,98206.09
2023-02-19T17:45:41.568Z,98205.03
2023-02-19T17:48:13.258Z,98218.97
2023-02-19T17:50:40.391Z,98216.91
2023-02-19T17:53:07.577Z,98214.34
2023-02-19T17:55:35.133Z,98224.44
2023-02-19T17:58:01.792Z,98221.63
2023-02-19T18:00:31.640Z,98227.97
2023-02-19T18:02:58.636Z,98229.03
2023-02-19T18:05:25.279Z,98239.28
2023-02-19T18:07:52.132Z,98235.44
2023-02-19T18:10:20.229Z,98243.50
2023-02-19T18:12:47.129Z,98252.00
2023-02-19T18:15:19.880Z,98244.00
2023-02-19T18:17:46.572Z,98237.63
2023-02-19T18:20:16.072Z,98247.91
2023-02-19T18:22:43.066Z,98255.06
2023-02-19T18:25:10.461Z,98260.91
2023-02-19T18:27:37.361Z,98271.41
2023-02-19T18:30:04.505Z,98288.06
2023-02-19T18:32:31.172Z,98291.50
2023-02-19T18:35:00.076Z,98289.84
2023-02-19T18:37:28.071Z,98293.63
2023-02-19T18:39:54.659Z,98293.00
2023-02-19T18:42:22.197Z,98299.53
2023-02-19T18:44:49.948Z,98300.97
2023-02-19T18:47:17.596Z,98305.63
2023-02-19T18:49:49.210Z,98310.00
2023-02-19T18:52:20.279Z,98302.91
2023-02-19T18:54:48.456Z,98309.16
2023-02-19T18:57:15.902Z,98312.38
2023-02-19T18:59:43.140Z,98311.47
2023-02-19T19:02:10.758Z,98317.31
2023-02-19T19:04:39.011Z,98324.38
2023-02-19T19:07:06.439Z,98328.88
2023-02-19T19:09:33.888Z,98340.81
2023-02-19T19:12:00.768Z,98356.34
2023-02-19T19:14:27.908Z,98355.47
2023-02-19T19:16:56.261Z,98355.28
2023-02-19T19:19:22.885Z,98359.06
2023-02-19T19:21:54.513Z,98359.56
2023-02-19T19:24:23.651Z,98366.19
2023-02-19T19:26:51.395Z,98376.53
2023-02-19T19:29:19.775Z,98369.63
2023-02-19T19:31:47.073Z,98370.19
2023-02-19T19:34:14.855Z,98379.81
2023-02-19T19:36:41.526Z,98381.28
2023-02-19T19:39:09.130Z,98390.78
2023-02-19T19:41:35.945Z,98390.91
2023-02-19T19:44:08.771Z,98398.97
2023-02-19T19:46:35.584Z,98416.34
2023-02-19T19:49:02.189Z,98423.75
2023-02-19T19:51:35.402Z,98419.88
2023-02-19T19:54:04.352Z,98421.03
2023-02-19T19:56:31.553Z,98417.31
2023-02-19T19:58:58.129Z,98427.63
2023-02-19T20:01:24.784Z,98426.47
2023-02-19T20:03:51.395Z,98426.97
2023-02-19T20:06:44.468Z,98418.06
2023-02-19T20:09:11.068Z,98426.97
2023-02-19T20:11:44.562Z,98421.03
2023-02-19T20:14:11.278Z,98425.13
2023-02-19T20:16:38.009Z,98428.19
2023-02-19T20:19:04.842Z,98431.22
2023-02-19T20:21:32.080Z,98418.22
2023-02-19T20:23:58.660Z,98419.28
2023-02-19T20:26:27.125Z,98411.66
2023-02-19T20:28:54.855Z,98413.84
2023-02-19T20:31:22.705Z,98417.84
2023-02-19T20:33:51.119Z,98404.03
2023-02-19T20:36:20.004Z,98410.75
2023-02-19T20:38:47.289Z,98403.94
2023-02-19T20:41:14.149Z,98403.44
2023-02-19T20:43:40.872Z,98397.47
2023-02-19T20:46:07.784Z,98410.16
2023-02-19T20:48:34.514Z,98417.28
2023-02-19T20:51:01.372Z,98421.25
2023-02-19T20:53:29.208Z,98426.47
2023-02-19T20:55:56.242Z,98423.56
2023-02-19T20:58:23.514Z,98429.53
2023-02-19T21:00:53.304Z,98431.09
2023-02-19T21:03:20.770Z,98427.97
2023-02-19T21:05:47.470Z,98435.41
2023-02-19T21:08:15.074Z,98429.00
2023-02-19T21:10:41.716Z,98430.50
2023-02-19T21:13:08.354Z,98432.06
2023-02-19T21:15:35.770Z,98428.69
2023-02-19T21:18:04.916Z,98444.09
2023-02-19T21:20:31.800Z,98432.16
2023-02-19T21:22:58.434Z,98451.22
2023-02-19T21:25:25.283Z,98448.94
2023-02-19T21:27:51.994Z,98438.78
2023-02-19T21:30:18.905Z,98447.44
2023-02-19T21:32:45.562Z,98440.53
2023-02-19T21:35:12.398Z,98439.50
2023-02-19T21:37:42.257Z,98436.97
2023-02-19T21:40:09.640Z,98429.44
2023-02-19T21:42:36.370Z,98431.34
2023-02-19T21:45:03.732Z,98436.06
2023-02-19T21:47:30.331Z,98431.41
2023-02-19T21:49:56.963Z,98431.94
2023-02-19T21:52:23.619Z,98435.59
2023-02-19T21:54:50.252Z,98436.97
2023-02-19T21:57:17.340Z,98441.06
2023-02-19T21:59:43.938Z,98442.63
2023-02-19T22:02:10.600Z,98435.94
2023-02-19T22:04:37.257Z,98446.84
2023-02-19T22:07:03.932Z,98437.91
2023-02-19T22:09:30.604Z,98434.97
2023-02-19T22:11:57.266Z,98442.72
2023-02-19T22:14:23.917Z,98443.34
2023-02-19T22:16:51.775Z,98445.16
2023-02-19T22:19:18.504Z,98449.56
2023-02-19T22:21:45.575Z,98448.16
2023-02-19T22:24:17.782Z,98453.38
2023-02-19T22:26:45.620Z,98457.88
2023-02-19T22:29:14.804Z,98459.38
2023-02-19T22:31:41.824Z,98462.22
2023-02-19T22:34:09.359Z,98463.78
2023-02-19T22:36:39.780Z,98465.78
2023-02-19T22:39:08.058Z,98470.25
2023-02-19T22:41:35.207Z,98470.50
2023-02-19T22:44:02.400Z,98464.22
2023-02-19T22:46:30.566Z,98466.09
2023-02-19T22:48:58.257Z,98471.34
2023-02-19T22:51:25.796Z,98449.56
2023-02-19T22:53:55.252Z,98460.34
2023-02-19T22:56:24.313Z,98454.25
2023-02-19T22:58:51.628Z,98453.31
2023-02-19T23:01:18.906Z,98458.94
2023-02-19T23:03:51.338Z,98462.09
2023-02-19T23:06:23.287Z,98456.66
2023-02-19T23:08:50.100Z,98457.59
2023-02-19T23:11:29.096Z,98470.72
2023-02-19T23:13:56.351Z,98466.63
2023-02-19T23:16:23.233Z,98469.66
2023-02-19T23:18:50.240Z,98473.75
2023-02-19T23:21:17.607Z,98485.63
2023-02-19T23:23:45.518Z,98487.63
2023-02-19T23:26:13.719Z,98483.63
2023-02-19T23:28:41.739Z,98493.00
2023-02-19T23:31:08.963Z,98489.88
2023-02-19T23:33:35.790Z,98488.59
2023-02-19T23:36:02.418Z,98478.69
2023-02-19T23:38:29.105Z,98482.72
2023-02-19T23:40:55.734Z,98484.66
2023-02-19T23:43:22.356Z,98487.88
2023-02-19T23:45:49.061Z,98489.66
2023-02-19T23:48:15.870Z,98490.59
2023-02-19T23:50:42.511Z,98483.91
2023-02-19T23:53:09.520Z,98479.94
2023-02-19T23:55:36.127Z,98485.81
2023-02-19T23:58:02.910Z,98483.31
